Time;durP1;ratioP1;P1;durP2;ratioP2;P2;SDS_P1;SDS_P2;PMS_P1;PMS_P2;Temp;Humidity;BMP_temperature;BMP_pressure;BME280_temperature;BME280_humidity;BME280_pressure;Samples;Min_cycle;Max_cycle;Signal;HPM_P1;HPM_P2
2023/10/21 00:03:52;;;;;;;5.03;4.50;;;9.00;99.90;;;;;;10530252;28;20323;-84
2023/10/21 00:08:55;;;;;;;7.07;5.87;;;9.00;99.90;;;;;;10531533;28;20247;-84
2023/10/21 00:13:58;;;;;;;6.80;5.27;;;8.90;99.90;;;;;;10530446;28;20229;-84
2023/10/21 00:19:01;;;;;;;8.70;4.20;;;8.90;99.90;;;;;;10536349;28;20234;-84
2023/10/21 00:24:04;;;;;;;6.23;4.67;;;8.90;99.90;;;;;;10538985;28;20275;-84
2023/10/21 00:29:06;;;;;;;3.27;2.97;;;9.20;99.90;;;;;;10537279;28;20272;-84
2023/10/21 00:34:12;;;;;;;4.43;4.03;;;9.20;99.90;;;;;;10538733;28;20221;-84
2023/10/21 00:39:15;;;;;;;9.03;4.67;;;9.40;99.90;;;;;;10498918;28;20614;-84
2023/10/21 00:44:17;;;;;;;9.77;5.63;;;9.40;99.90;;;;;;10536610;28;20271;-84
2023/10/21 00:49:20;;;;;;;6.00;4.70;;;9.70;99.90;;;;;;10519229;28;20230;-84
2023/10/21 00:54:25;;;;;;;3.40;3.10;;;9.60;99.90;;;;;;10538256;28;20776;-84
2023/10/21 00:59:28;;;;;;;7.17;5.10;;;9.60;99.90;;;;;;10538445;28;20238;-84
2023/10/21 01:04:31;;;;;;;6.23;4.77;;;9.70;99.90;;;;;;10537056;28;20264;-84
2023/10/21 01:09:33;;;;;;;9.10;5.40;;;9.90;99.90;;;;;;10534432;28;20214;-85
2023/10/21 01:14:36;;;;;;;6.40;3.87;;;9.90;99.90;;;;;;10534400;28;20237;-84
2023/10/21 01:19:39;;;;;;;5.80;3.27;;;9.90;99.90;;;;;;10535155;28;20201;-84
2023/10/21 01:24:41;;;;;;;4.60;2.97;;;10.00;99.90;;;;;;10536300;28;20379;-85
2023/10/21 01:29:44;;;;;;;6.60;4.67;;;9.80;99.90;;;;;;10531432;28;20218;-84
2023/10/21 01:34:46;;;;;;;4.73;4.23;;;10.00;99.90;;;;;;10516517;28;20238;-85
2023/10/21 01:39:49;;;;;;;4.43;3.80;;;9.90;99.90;;;;;;10535536;28;20229;-84
2023/10/21 01:44:54;;;;;;;4.93;3.90;;;10.00;99.90;;;;;;10531809;28;20242;-84
2023/10/21 01:49:58;;;;;;;7.67;4.60;;;10.10;99.90;;;;;;10524640;28;20229;-84
2023/10/21 01:55:03;;;;;;;9.40;7.70;;;9.90;99.90;;;;;;10534084;28;20241;-84
2023/10/21 02:00:09;;;;;;;9.43;7.57;;;9.60;99.90;;;;;;10532804;28;20225;-84
2023/10/21 02:05:15;;;;;;;5.47;4.03;;;9.30;99.90;;;;;;10530716;28;20265;-84
2023/10/21 02:10:18;;;;;;;6.70;5.57;;;9.40;99.90;;;;;;10533484;28;20680;-84
2023/10/21 02:15:21;;;;;;;6.70;5.57;;;9.20;99.90;;;;;;10527585;28;20284;-84
2023/10/21 02:20:23;;;;;;;6.30;5.00;;;9.10;99.90;;;;;;10533261;28;20224;-85
2023/10/21 02:25:26;;;;;;;5.37;4.10;;;9.30;99.90;;;;;;10531292;28;20262;-84
2023/10/21 02:30:31;;;;;;;6.27;4.93;;;9.60;99.90;;;;;;10521703;28;20241;-84
2023/10/21 02:35:34;;;;;;;3.30;3.00;;;9.70;99.90;;;;;;10495134;28;20320;-84
2023/10/21 02:40:40;;;;;;;7.27;5.83;;;9.40;99.90;;;;;;10532944;28;20193;-85
2023/10/21 02:45:43;;;;;;;5.43;4.93;;;9.60;99.90;;;;;;10531899;28;20214;-84
2023/10/21 02:50:46;;;;;;;4.53;3.37;;;9.80;99.90;;;;;;10530435;28;20268;-84
2023/10/21 02:55:49;;;;;;;7.80;5.10;;;10.00;99.90;;;;;;10532335;28;20729;-84
2023/10/21 03:00:51;;;;;;;7.33;6.40;;;10.00;99.90;;;;;;10532643;28;20233;-84
2023/10/21 03:05:54;;;;;;;7.73;6.20;;;9.80;99.90;;;;;;10502428;28;20674;-85
2023/10/21 03:10:57;;;;;;;5.33;4.10;;;9.70;99.90;;;;;;10530825;28;20237;-84
2023/10/21 03:16:08;;;;;;;6.87;5.43;;;9.80;99.90;;;;;;10517591;28;20241;-84
2023/10/21 03:21:11;;;;;;;4.97;3.70;;;9.50;99.90;;;;;;10528322;28;20312;-84
2023/10/21 03:26:14;;;;;;;7.97;5.97;;;9.30;99.90;;;;;;10515467;28;20225;-84
2023/10/21 03:31:16;;;;;;;6.13;5.20;;;9.60;99.90;;;;;;10529616;28;20626;-84
2023/10/21 03:36:19;;;;;;;6.13;3.73;;;9.70;99.90;;;;;;10531260;28;20280;-85
2023/10/21 03:41:24;;;;;;;13.23;7.63;;;9.60;99.90;;;;;;10529380;28;20275;-84
2023/10/21 03:46:26;;;;;;;8.73;6.30;;;9.70;99.90;;;;;;10530297;28;20225;-84
2023/10/21 03:51:30;;;;;;;8.40;7.43;;;9.70;99.90;;;;;;10526741;28;20286;-84
2023/10/21 03:56:33;;;;;;;9.13;7.27;;;9.70;99.90;;;;;;10531296;28;20637;-84
2023/10/21 04:01:35;;;;;;;9.53;7.03;;;9.60;99.90;;;;;;10530123;28;20743;-84
2023/10/21 04:06:38;;;;;;;11.00;7.40;;;9.50;99.90;;;;;;10530227;28;20261;-84
2023/10/21 04:11:42;;;;;;;10.63;6.80;;;9.50;99.90;;;;;;10520312;28;20237;-85
2023/10/21 04:16:45;;;;;;;4.97;4.47;;;9.50;99.90;;;;;;10529485;28;20256;-85
2023/10/21 04:21:47;;;;;;;8.90;7.00;;;9.40;99.90;;;;;;10513032;28;20279;-84
2023/10/21 04:26:50;;;;;;;10.30;7.80;;;9.40;99.90;;;;;;10529970;28;20230;-84
2023/10/21 04:31:52;;;;;;;5.87;4.53;;;9.20;99.90;;;;;;10529989;28;20241;-84
2023/10/21 04:36:55;;;;;;;9.57;7.10;;;9.30;99.90;;;;;;10530270;28;20303;-83
2023/10/21 04:41:58;;;;;;;7.07;5.23;;;9.20;99.90;;;;;;10502054;28;20239;-83
2023/10/21 04:47:00;;;;;;;4.07;3.47;;;9.60;99.90;;;;;;10528932;28;20381;-83
2023/10/21 04:52:04;;;;;;;6.73;5.07;;;9.90;99.90;;;;;;10497542;28;20295;-83
2023/10/21 04:57:07;;;;;;;4.67;4.17;;;9.90;99.90;;;;;;10529545;28;20306;-83
2023/10/21 05:02:09;;;;;;;6.27;5.07;;;10.00;99.90;;;;;;10521737;28;20293;-83
2023/10/21 05:07:12;;;;;;;4.97;3.97;;;9.70;99.90;;;;;;10536780;28;20294;-83
2023/10/21 05:12:14;;;;;;;5.80;4.50;;;9.60;99.90;;;;;;10535020;28;20291;-84
2023/10/21 05:17:17;;;;;;;4.57;3.87;;;9.60;99.90;;;;;;10525171;28;20291;-83
2023/10/21 05:22:20;;;;;;;6.57;5.03;;;9.40;99.90;;;;;;10537408;28;20229;-83
2023/10/21 05:27:22;;;;;;;6.80;4.97;;;9.30;99.90;;;;;;10538064;28;20282;-83
2023/10/21 05:32:25;;;;;;;5.43;4.83;;;9.40;99.90;;;;;;10535603;28;20633;-84
2023/10/21 05:37:28;;;;;;;6.00;4.70;;;9.20;99.90;;;;;;10534458;28;20300;-84
2023/10/21 05:42:30;;;;;;;5.13;3.77;;;9.20;99.90;;;;;;10535800;28;20229;-84
2023/10/21 05:47:34;;;;;;;6.67;4.53;;;9.20;99.90;;;;;;10535266;28;20232;-84
2023/10/21 05:52:36;;;;;;;4.37;3.87;;;9.30;99.90;;;;;;10535854;28;20197;-84
2023/10/21 05:57:39;;;;;;;15.00;7.20;;;9.30;99.90;;;;;;10535030;28;20764;-84
2023/10/21 06:02:42;;;;;;;15.30;7.60;;;9.40;99.90;;;;;;10536291;28;20225;-84
2023/10/21 06:07:44;;;;;;;22.10;9.70;;;9.50;99.90;;;;;;10535624;28;20261;-83
2023/10/21 06:12:47;;;;;;;17.30;7.50;;;9.30;99.90;;;;;;10536182;28;20274;-84
2023/10/21 06:17:51;;;;;;;7.37;5.80;;;9.30;99.90;;;;;;10522596;28;20326;-84
2023/10/21 06:22:53;;;;;;;7.87;5.80;;;9.30;99.90;;;;;;10527309;28;20225;-84
2023/10/21 06:27:58;;;;;;;9.00;5.73;;;9.20;99.90;;;;;;10535073;28;20232;-84
2023/10/21 06:33:00;;;;;;;5.30;4.80;;;9.40;99.90;;;;;;10533236;28;20294;-83
2023/10/21 06:38:04;;;;;;;7.27;5.93;;;9.40;99.90;;;;;;10513745;28;20256;-84
2023/10/21 06:43:06;;;;;;;6.97;4.87;;;9.30;99.90;;;;;;10533520;28;20233;-84
2023/10/21 06:48:09;;;;;;;7.27;5.83;;;9.50;99.90;;;;;;10532600;28;20642;-83
2023/10/21 06:53:12;;;;;;;12.07;6.93;;;9.50;99.90;;;;;;10530820;28;20226;-83
2023/10/21 06:58:14;;;;;;;7.33;6.50;;;9.60;99.90;;;;;;10530810;28;20253;-83
2023/10/21 07:03:17;;;;;;;5.57;4.60;;;9.80;99.90;;;;;;10529005;28;20724;-83
2023/10/21 07:08:20;;;;;;;8.07;6.53;;;10.00;99.90;;;;;;10532309;28;20237;-83
2023/10/21 07:13:22;;;;;;;7.13;5.70;;;10.10;99.90;;;;;;10525093;28;20225;-84
2023/10/21 07:18:25;;;;;;;11.13;7.40;;;10.40;99.90;;;;;;10501978;28;20299;-83
2023/10/21 07:23:27;;;;;;;12.13;8.27;;;10.60;99.90;;;;;;10521948;28;20597;-84
2023/10/21 07:28:31;;;;;;;10.07;6.53;;;10.30;99.90;;;;;;10529993;28;20290;-83
2023/10/21 07:33:34;;;;;;;9.70;7.90;;;10.50;99.90;;;;;;10531200;28;20237;-84
2023/10/21 07:38:36;;;;;;;8.83;4.87;;;10.70;99.90;;;;;;10531793;28;20261;-83
2023/10/21 07:43:39;;;;;;;9.17;6.07;;;10.90;99.90;;;;;;10531013;28;20259;-83
2023/10/21 07:48:41;;;;;;;5.53;4.50;;;11.00;99.90;;;;;;10493302;28;20622;-83
2023/10/21 07:53:44;;;;;;;7.90;5.07;;;11.20;99.90;;;;;;10489038;28;20698;-83
2023/10/21 07:58:47;;;;;;;9.57;6.23;;;11.40;99.90;;;;;;10529842;28;20292;-83
2023/10/21 08:03:49;;;;;;;7.20;5.13;;;11.40;99.90;;;;;;10529378;28;20313;-83
2023/10/21 08:08:52;;;;;;;7.77;6.10;;;11.70;99.90;;;;;;10530612;28;20286;-83
2023/10/21 08:13:55;;;;;;;7.00;5.97;;;12.00;99.90;;;;;;10531232;28;20213;-83
2023/10/21 08:18:58;;;;;;;15.70;9.67;;;11.90;99.90;;;;;;10531221;28;20300;-83
2023/10/21 08:24:05;;;;;;;8.60;5.67;;;12.10;99.90;;;;;;10530789;28;20288;-84
2023/10/21 08:29:10;;;;;;;12.20;7.70;;;12.20;99.90;;;;;;10529476;28;20229;-83
2023/10/21 08:34:13;;;;;;;14.83;10.33;;;12.20;99.90;;;;;;10175813;28;9999983;-84
2023/10/21 08:39:15;;;;;;;7.10;5.70;;;12.10;99.90;;;;;;10530880;28;20249;-83
2023/10/21 08:44:20;;;;;;;9.73;7.23;;;12.00;99.90;;;;;;10531590;28;20233;-83
2023/10/21 08:49:23;;;;;;;16.03;12.67;;;12.20;99.90;;;;;;10492396;28;20229;-83
2023/10/21 08:54:27;;;;;;;6.90;4.83;;;12.30;99.90;;;;;;10538114;28;20241;-84
2023/10/21 08:59:30;;;;;;;9.40;7.63;;;12.40;99.90;;;;;;10535898;28;20298;-83
2023/10/21 09:04:33;;;;;;;9.43;6.67;;;12.40;99.90;;;;;;10537229;28;20253;-82
2023/10/21 09:09:36;;;;;;;15.93;10.57;;;12.60;99.90;;;;;;10538164;28;20233;-82
2023/10/21 09:14:52;;;;;;;18.93;13.30;;;12.60;99.90;;;;;;10540422;28;20288;-82
2023/10/21 09:19:54;;;;;;;19.37;13.23;;;12.80;99.90;;;;;;10540246;28;20715;-82
2023/10/21 09:25:14;;;;;;;11.20;7.60;;;12.70;99.90;;;;;;10536003;28;20225;-83
2023/10/21 09:30:18;;;;;;;11.40;7.17;;;12.70;99.90;;;;;;10518718;28;20280;-83
2023/10/21 09:35:24;;;;;;;38.57;21.67;;;12.80;99.90;;;;;;10536107;28;20798;-83
2023/10/21 09:40:26;;;;;;;46.70;22.67;;;12.90;99.90;;;;;;10536830;28;20244;-82
2023/10/21 09:45:29;;;;;;;48.83;28.23;;;12.90;99.90;;;;;;10539290;28;20364;-82
2023/10/21 09:50:35;;;;;;;33.23;19.33;;;12.90;99.90;;;;;;10535749;28;20237;-82
2023/10/21 09:55:42;;;;;;;23.03;15.67;;;12.70;99.90;;;;;;10494288;28;20231;-82
2023/10/21 10:00:46;;;;;;;15.73;10.93;;;12.80;99.90;;;;;;10492191;28;20315;-82
2023/10/21 10:05:49;;;;;;;14.57;10.60;;;12.90;99.90;;;;;;10515268;28;20295;-82
2023/10/21 10:10:55;;;;;;;18.77;14.30;;;13.00;99.90;;;;;;10533392;28;20221;-82
2023/10/21 10:16:00;;;;;;;22.10;14.13;;;13.00;99.90;;;;;;10530054;28;20237;-82
2023/10/21 10:21:13;;;;;;;10.13;7.43;;;13.00;99.90;;;;;;10511554;28;20318;-82
2023/10/21 10:26:36;;;;;;;24.37;15.70;;;13.00;99.90;;;;;;10531898;28;20672;-83
2023/10/21 10:31:47;;;;;;;28.03;19.67;;;13.00;99.90;;;;;;10532633;28;20240;-83
2023/10/21 10:36:51;;;;;;;24.47;19.17;;;13.00;99.90;;;;;;10534458;28;20237;-83
2023/10/21 10:41:53;;;;;;;18.40;12.33;;;12.50;99.90;;;;;;10532518;28;20237;-82
2023/10/21 10:46:57;;;;;;;25.03;11.70;;;12.80;99.90;;;;;;10532479;28;20267;-82
2023/10/21 10:52:00;;;;;;;17.60;12.50;;;12.80;99.90;;;;;;10533533;28;20232;-83
2023/10/21 10:57:03;;;;;;;19.50;14.93;;;13.20;99.90;;;;;;10531020;28;20279;-82
2023/10/21 11:02:08;;;;;;;23.07;16.17;;;13.30;99.90;;;;;;10525736;28;20282;-83
2023/10/21 11:07:13;;;;;;;26.07;18.37;;;13.40;99.90;;;;;;10531904;28;20253;-82
2023/10/21 11:12:16;;;;;;;28.17;19.97;;;13.50;99.90;;;;;;10532472;28;20282;-82
2023/10/21 11:17:19;;;;;;;32.33;22.67;;;13.50;99.90;;;;;;10532898;28;20641;-82
2023/10/21 11:22:25;;;;;;;30.70;22.10;;;13.50;99.90;;;;;;10531322;28;20294;-82
2023/10/21 11:27:28;;;;;;;27.77;20.90;;;13.80;99.90;;;;;;10530647;28;20225;-81
2023/10/21 11:32:31;;;;;;;34.30;23.20;;;14.00;99.90;;;;;;10530903;28;20244;-81
2023/10/21 11:37:34;;;;;;;28.80;19.43;;;13.90;99.90;;;;;;10531410;28;20253;-82
2023/10/21 11:42:38;;;;;;;28.57;21.80;;;14.00;99.90;;;;;;10493522;28;20290;-82
2023/10/21 11:47:40;;;;;;;30.93;21.20;;;14.10;99.90;;;;;;10528898;28;20771;-81
2023/10/21 11:52:44;;;;;;;22.27;14.33;;;14.10;99.90;;;;;;10528030;28;20260;-82
2023/10/21 12:25:40;;;;;;;35.67;23.90;;;14.80;99.90;;;;;;10322458;28;20240;-81
2023/10/21 12:40:39;;;;;;;23.70;16.80;;;15.60;99.90;;;;;;10395171;28;20259;-82
2023/10/21 12:45:47;;;;;;;20.77;12.73;;;15.00;99.90;;;;;;10503054;28;20242;-82
2023/10/21 12:50:50;;;;;;;33.20;21.57;;;14.80;99.90;;;;;;10505996;28;20233;-82
2023/10/21 12:55:52;;;;;;;33.97;21.83;;;14.90;99.90;;;;;;10519628;28;20847;-83
2023/10/21 13:00:55;;;;;;;39.57;26.53;;;14.60;99.90;;;;;;10536412;28;20249;-82
2023/10/21 13:05:57;;;;;;;41.97;27.20;;;14.80;99.90;;;;;;10535488;28;20262;-83
2023/10/21 13:11:00;;;;;;;39.10;25.37;;;14.40;99.90;;;;;;10531312;28;20287;-82
2023/10/21 13:16:07;;;;;;;29.77;20.47;;;14.50;99.90;;;;;;10530333;28;20646;-82
2023/10/21 13:21:10;;;;;;;24.20;17.33;;;14.40;99.90;;;;;;10500977;28;20314;-82
2023/10/21 13:26:13;;;;;;;18.30;11.43;;;14.40;99.90;;;;;;10493668;28;20217;-82
2023/10/21 13:31:15;;;;;;;39.57;26.77;;;14.40;99.90;;;;;;10528353;28;20245;-82
2023/10/21 13:36:18;;;;;;;34.60;23.57;;;14.40;99.90;;;;;;10534717;28;20266;-82
2023/10/21 13:41:21;;;;;;;32.30;23.50;;;14.40;99.90;;;;;;10526564;28;20314;-83
2023/10/21 13:46:23;;;;;;;22.23;15.43;;;14.30;99.90;;;;;;10505247;28;20225;-83
2023/10/21 13:51:26;;;;;;;32.47;21.00;;;14.30;99.90;;;;;;10533878;28;20233;-83
2023/10/21 13:56:29;;;;;;;30.63;20.93;;;14.30;99.90;;;;;;10521542;28;20272;-83
2023/10/21 14:01:32;;;;;;;47.07;28.33;;;14.20;99.90;;;;;;10493262;28;20818;-82
2023/10/21 14:06:35;;;;;;;45.93;26.27;;;14.30;99.90;;;;;;10500497;28;20271;-83
2023/10/21 14:11:38;;;;;;;34.10;23.43;;;14.10;99.90;;;;;;10507504;28;20351;-83
2023/10/21 14:16:40;;;;;;;34.17;23.63;;;14.20;99.90;;;;;;10532411;28;20241;-83
2023/10/21 14:21:44;;;;;;;31.67;21.43;;;14.20;99.90;;;;;;10533252;28;20252;-83
2023/10/21 14:26:46;;;;;;;36.13;25.33;;;14.20;99.90;;;;;;10526439;28;20271;-83
2023/10/21 14:31:50;;;;;;;47.57;31.30;;;14.00;99.90;;;;;;10514191;28;20725;-83
2023/10/21 14:36:53;;;;;;;11.10;8.57;;;14.40;99.90;;;;;;10526641;28;20311;-83
2023/10/21 14:41:55;;;;;;;18.30;12.47;;;13.90;99.90;;;;;;10493231;28;20242;-83
2023/10/21 14:46:59;;;;;;;29.43;19.03;;;14.20;99.90;;;;;;10527668;28;20831;-83
2023/10/21 14:52:02;;;;;;;41.70;28.00;;;14.00;99.90;;;;;;10497524;28;20245;-83
2023/10/21 14:57:04;;;;;;;46.57;31.63;;;14.10;99.90;;;;;;10489004;28;20630;-82
2023/10/21 15:02:08;;;;;;;44.43;28.97;;;13.90;99.90;;;;;;10504917;28;20276;-83
2023/10/21 15:07:11;;;;;;;47.03;32.43;;;13.80;99.90;;;;;;10505465;28;20560;-82
2023/10/21 15:12:15;;;;;;;46.07;27.50;;;13.60;99.90;;;;;;10527239;28;20311;-83
2023/10/21 15:17:17;;;;;;;42.03;26.00;;;13.60;99.90;;;;;;10491404;28;20283;-83
2023/10/21 15:22:20;;;;;;;26.20;19.13;;;13.50;99.90;;;;;;10496501;28;20265;-82
2023/10/21 15:27:25;;;;;;;53.07;32.10;;;13.20;99.90;;;;;;10524813;28;20676;-83
2023/10/21 15:32:28;;;;;;;50.43;32.47;;;13.10;99.90;;;;;;10520051;28;20236;-83
2023/10/21 15:37:31;;;;;;;52.90;35.20;;;12.90;99.90;;;;;;10530613;28;20229;-83
2023/10/21 15:42:34;;;;;;;49.43;27.03;;;12.60;99.90;;;;;;10529144;28;20241;-84
2023/10/21 15:47:37;;;;;;;47.53;30.63;;;12.40;99.90;;;;;;10528362;28;20234;-84
2023/10/21 15:52:39;;;;;;;51.83;34.43;;;12.20;99.90;;;;;;10530278;28;20679;-84
2023/10/21 15:57:42;;;;;;;58.10;35.90;;;12.10;99.90;;;;;;10531241;28;20673;-84
2023/10/21 16:02:49;;;;;;;50.77;30.50;;;11.90;99.90;;;;;;10530725;28;20581;-84
2023/10/21 16:07:52;;;;;;;57.03;33.60;;;11.80;99.90;;;;;;10529639;28;20318;-84
2023/10/21 16:12:59;;;;;;;50.73;33.63;;;11.80;99.90;;;;;;10528164;28;20241;-84
2023/10/21 16:18:02;;;;;;;55.17;34.80;;;11.50;99.90;;;;;;10527944;28;20662;-84
2023/10/21 16:23:05;;;;;;;59.53;36.13;;;11.40;99.90;;;;;;10529355;28;20682;-83
2023/10/21 16:28:07;;;;;;;60.43;38.90;;;11.10;99.90;;;;;;10530228;28;20237;-84
2023/10/21 16:33:10;;;;;;;50.17;34.80;;;11.00;99.90;;;;;;10529620;28;20236;-84
2023/10/21 16:38:13;;;;;;;50.33;31.23;;;10.80;99.90;;;;;;10529222;28;20264;-84
2023/10/21 16:43:15;;;;;;;38.80;26.13;;;10.70;99.90;;;;;;10530553;28;20226;-84
2023/10/21 16:48:18;;;;;;;37.03;25.93;;;10.90;99.90;;;;;;10529296;28;20310;-84
2023/10/21 16:53:22;;;;;;;41.37;26.13;;;10.70;99.90;;;;;;10530339;28;20229;-84
2023/10/21 16:58:24;;;;;;;46.77;30.23;;;10.60;99.90;;;;;;10531242;28;20329;-83
2023/10/21 17:03:27;;;;;;;26.17;18.83;;;10.40;99.90;;;;;;10536600;28;20754;-82
2023/10/21 17:08:34;;;;;;;43.20;30.13;;;10.30;99.90;;;;;;10533375;28;20287;-81
2023/10/21 17:13:36;;;;;;;51.43;27.43;;;10.40;99.90;;;;;;10532090;28;20684;-81
2023/10/21 17:18:39;;;;;;;49.57;28.27;;;10.30;99.90;;;;;;10535957;28;20685;-82
2023/10/21 17:23:42;;;;;;;51.33;31.53;;;10.40;99.90;;;;;;10537184;28;20302;-81
2023/10/21 17:28:44;;;;;;;41.90;25.97;;;9.90;99.90;;;;;;9826340;28;10000701;-81
2023/10/21 17:33:47;;;;;;;44.23;23.03;;;10.00;99.90;;;;;;10526450;28;20557;-81
2023/10/21 17:38:53;;;;;;;54.23;29.13;;;10.10;99.90;;;;;;10533186;28;20310;-81
2023/10/21 17:43:56;;;;;;;46.10;27.40;;;10.00;99.90;;;;;;10532491;28;20690;-81
2023/10/21 17:48:59;;;;;;;55.80;34.83;;;10.00;99.90;;;;;;10533693;28;20294;-82
2023/10/21 17:54:01;;;;;;;51.07;31.17;;;9.80;99.90;;;;;;10533887;28;20707;-81
2023/10/21 17:59:05;;;;;;;42.40;26.47;;;9.70;99.90;;;;;;10499624;28;20279;-81
2023/10/21 18:04:07;;;;;;;41.33;26.10;;;9.80;99.90;;;;;;10532578;28;20265;-82
2023/10/21 18:09:10;;;;;;;48.27;32.77;;;10.10;99.90;;;;;;10532266;28;20362;-81
2023/10/21 18:14:13;;;;;;;45.57;30.13;;;10.00;99.90;;;;;;10532218;28;20282;-81
2023/10/21 18:19:15;;;;;;;37.90;24.57;;;9.80;99.90;;;;;;10532211;28;20666;-81
2023/10/21 18:24:18;;;;;;;50.40;33.90;;;9.90;99.90;;;;;;10531385;28;20233;-82
2023/10/21 18:29:21;;;;;;;44.70;29.13;;;10.10;99.90;;;;;;10521009;28;20291;-81
2023/10/21 18:40:01;;;;;;;48.00;30.10;;;9.80;99.90;;;;;;10350722;23;10000531;-81
2023/10/21 18:45:04;;;;;;;53.03;33.17;;;9.70;99.90;;;;;;10240922;28;20304;-81
2023/10/21 18:50:07;;;;;;;49.97;29.47;;;9.60;99.90;;;;;;10225675;29;20297;-81
2023/10/21 18:55:10;;;;;;;50.77;31.47;;;9.40;99.90;;;;;;10241070;28;20234;-81
2023/10/21 19:00:13;;;;;;;45.83;27.17;;;9.50;99.90;;;;;;10226338;29;20246;-81
2023/10/21 19:05:17;;;;;;;57.33;37.03;;;9.40;99.90;;;;;;10225163;29;20265;-81
2023/10/21 19:10:24;;;;;;;60.30;37.30;;;9.40;99.90;;;;;;10225050;29;20296;-82
2023/10/21 19:15:27;;;;;;;62.27;38.73;;;9.10;99.90;;;;;;10241025;29;20241;-81
2023/10/21 19:20:29;;;;;;;50.10;28.60;;;9.20;99.90;;;;;;10240033;28;20309;-81
2023/10/21 19:25:32;;;;;;;50.17;32.80;;;9.30;99.90;;;;;;10241071;28;20617;-81
2023/10/21 19:30:35;;;;;;;56.00;36.80;;;9.10;99.90;;;;;;10223188;29;20348;-81
2023/10/21 19:35:37;;;;;;;36.17;23.77;;;9.10;99.90;;;;;;10241544;29;20249;-81
2023/10/21 19:40:40;;;;;;;62.23;36.97;;;9.10;99.90;;;;;;10240603;28;20325;-81
2023/10/21 19:45:44;;;;;;;51.93;35.23;;;9.30;99.90;;;;;;10223559;29;20234;-81
2023/10/21 19:50:46;;;;;;;56.30;36.80;;;8.90;99.90;;;;;;10238370;28;20293;-81
2023/10/21 19:55:56;;;;;;;55.60;36.03;;;8.90;99.90;;;;;;10223364;29;20665;-80
2023/10/21 20:01:07;;;;;;;49.60;28.73;;;8.90;99.90;;;;;;10239548;29;20337;-81
2023/10/21 20:06:09;;;;;;;59.17;34.90;;;8.80;99.90;;;;;;10240973;29;20641;-81
2023/10/21 20:11:13;;;;;;;45.77;30.83;;;8.80;99.90;;;;;;10240651;29;20314;-81
2023/10/21 20:16:15;;;;;;;59.00;37.43;;;8.70;99.90;;;;;;10256508;28;20241;-81
2023/10/21 20:21:18;;;;;;;50.60;31.93;;;8.60;99.90;;;;;;10254026;28;20265;-81
2023/10/21 20:26:20;;;;;;;32.63;21.27;;;8.60;99.90;;;;;;10245101;28;20297;-81
2023/10/21 20:31:23;;;;;;;47.10;29.93;;;8.80;99.90;;;;;;10246105;29;20230;-81
2023/10/21 20:36:27;;;;;;;39.90;27.17;;;8.50;99.90;;;;;;10252333;28;20242;-81
2023/10/21 20:41:30;;;;;;;46.10;28.50;;;8.60;99.90;;;;;;10251617;29;20289;-82
2023/10/21 20:46:33;;;;;;;51.70;33.30;;;8.70;99.90;;;;;;10250576;28;20289;-81
2023/10/21 20:51:36;;;;;;;42.03;25.87;;;8.60;99.90;;;;;;10267044;28;20784;-81
2023/10/21 20:56:39;;;;;;;51.30;32.20;;;8.40;99.90;;;;;;10253162;29;20304;-80
2023/10/21 21:01:42;;;;;;;50.03;32.10;;;8.40;99.90;;;;;;10251125;29;20262;-81
2023/10/21 21:06:45;;;;;;;63.23;37.50;;;8.30;99.90;;;;;;10251956;29;20237;-81
2023/10/21 21:11:51;;;;;;;43.53;29.20;;;8.20;99.90;;;;;;10251021;28;20292;-82
2023/10/21 21:16:53;;;;;;;55.40;34.77;;;8.40;99.90;;;;;;10251598;29;20230;-82
2023/10/21 21:21:57;;;;;;;51.63;33.90;;;8.10;99.90;;;;;;10249842;28;20309;-82
2023/10/21 21:27:00;;;;;;;46.90;31.47;;;8.10;99.90;;;;;;10251519;28;20246;-82
2023/10/21 21:32:03;;;;;;;51.63;33.40;;;7.80;99.90;;;;;;10250464;29;20315;-82
2023/10/21 21:37:09;;;;;;;46.30;30.40;;;7.90;99.90;;;;;;10250474;29;20975;-82
2023/10/21 21:42:12;;;;;;;50.53;32.83;;;7.80;99.90;;;;;;10247808;29;20274;-82
2023/10/21 21:47:14;;;;;;;55.33;34.03;;;7.80;99.90;;;;;;10248898;28;20304;-82
2023/10/21 21:52:18;;;;;;;60.33;34.07;;;7.70;99.90;;;;;;10231388;29;20241;-82
2023/10/21 21:57:20;;;;;;;52.07;28.70;;;7.70;99.90;;;;;;10249518;28;20246;-82
2023/10/21 22:02:23;;;;;;;48.60;30.63;;;7.80;99.90;;;;;;10249690;29;20301;-81
2023/10/21 22:07:26;;;;;;;50.77;31.80;;;7.60;99.90;;;;;;10232253;29;20230;-81
2023/10/21 22:12:28;;;;;;;34.37;22.50;;;7.70;99.90;;;;;;10232308;28;20292;-81
2023/10/21 22:17:31;;;;;;;59.83;33.60;;;7.80;99.90;;;;;;10245124;29;20234;-81
2023/10/21 22:22:34;;;;;;;54.03;34.70;;;7.90;99.90;;;;;;10248690;29;20264;-81
2023/10/21 22:27:37;;;;;;;45.73;28.43;;;8.00;99.90;;;;;;10231813;29;20234;-81
2023/10/21 22:32:39;;;;;;;47.30;28.70;;;8.10;99.90;;;;;;10246982;28;20234;-81
2023/10/21 22:37:42;;;;;;;42.77;26.63;;;8.10;99.90;;;;;;10247101;28;20226;-81
2023/10/21 22:42:44;;;;;;;47.07;29.53;;;8.30;99.90;;;;;;10243374;29;20329;-81
2023/10/21 22:47:47;;;;;;;50.63;30.70;;;8.40;99.90;;;;;;10238217;29;20262;-82
2023/10/21 22:52:49;;;;;;;38.60;24.43;;;8.40;99.90;;;;;;10248223;28;20242;-81
2023/10/21 22:57:52;;;;;;;44.83;29.40;;;8.50;99.90;;;;;;10246195;28;20242;-81
2023/10/21 23:03:01;;;;;;;49.60;29.17;;;8.80;99.90;;;;;;10228638;29;20258;-81
2023/10/21 23:08:16;;;;;;;32.47;21.27;;;8.60;99.90;;;;;;10200400;29;20656;-82
2023/10/21 23:13:19;;;;;;;49.13;30.03;;;8.60;99.90;;;;;;10230353;29;20234;-81
2023/10/21 23:18:22;;;;;;;54.50;30.93;;;8.70;99.90;;;;;;10230046;29;20245;-82
2023/10/21 23:23:24;;;;;;;44.97;26.83;;;8.70;99.90;;;;;;10219926;29;20254;-82
2023/10/21 23:28:27;;;;;;;43.23;28.37;;;8.90;99.90;;;;;;10205647;29;20748;-82
2023/10/21 23:33:30;;;;;;;47.90;29.07;;;9.00;99.90;;;;;;10224613;29;20237;-81
2023/10/21 23:38:33;;;;;;;40.23;26.80;;;9.00;99.90;;;;;;10282135;28;20261;-81
2023/10/21 23:43:36;;;;;;;48.17;30.03;;;9.10;99.90;;;;;;10268920;28;20331;-82
2023/10/21 23:48:39;;;;;;;43.53;29.07;;;9.10;99.90;;;;;;10260776;28;20226;-82
2023/10/21 23:53:42;;;;;;;40.17;26.60;;;9.10;99.90;;;;;;10229457;29;20304;-81
2023/10/21 23:58:44;;;;;;;39.30;26.50;;;9.20;99.90;;;;;;10245914;29;20681;-81
